createdAt,value
2023-02-05T00:04:29.532Z,-1.17
2023-02-05T00:09:47.713Z,-0.98
2023-02-05T00:15:00.386Z,-1.24
2023-02-05T00:20:05.241Z,-1.46
2023-02-05T00:25:10.915Z,-1.25
2023-02-05T00:30:19.656Z,-1.35
2023-02-05T00:35:25.441Z,-1.38
2023-02-05T00:40:30.459Z,-1.53
2023-02-05T00:45:38.008Z,-1.73
2023-02-05T00:50:43.092Z,-1.37
2023-02-05T00:55:48.336Z,-1.46
2023-02-05T01:00:56.224Z,-1.80
2023-02-05T01:06:03.373Z,-2.16
2023-02-05T01:11:11.367Z,-2.34
2023-02-05T01:16:19.159Z,-2.41
2023-02-05T01:21:26.641Z,-2.01
2023-02-05T01:26:31.867Z,-2.00
2023-02-05T01:31:39.561Z,-2.60
2023-02-05T01:36:44.643Z,-2.63
2023-02-05T01:41:49.585Z,-2.80
2023-02-05T01:46:58.309Z,-2.20
2023-02-05T01:52:14.757Z,-2.12
2023-02-05T01:57:23.678Z,-2.25
2023-02-05T02:02:31.589Z,-2.44
2023-02-05T02:07:39.756Z,-2.27
2023-02-05T02:12:48.593Z,-2.51
2023-02-05T02:18:19.183Z,-2.82
2023-02-05T02:23:40.342Z,-2.79
2023-02-05T02:28:53.748Z,-2.65
2023-02-05T02:34:03.550Z,-3.00
2023-02-05T02:39:15.532Z,-3.04
2023-02-05T02:44:31.393Z,-3.03
2023-02-05T02:49:39.686Z,-2.88
2023-02-05T02:54:49.857Z,-3.07
2023-02-05T03:00:03.777Z,-3.09
2023-02-05T03:05:14.412Z,-3.11
2023-02-05T03:10:26.569Z,-3.30
2023-02-05T03:15:35.416Z,-3.28
2023-02-05T03:20:47.904Z,-3.09
2023-02-05T03:25:53.636Z,-3.36
2023-02-05T03:31:17.165Z,-2.89
2023-02-05T03:36:28.722Z,-3.31
2023-02-05T03:41:59.139Z,-3.20
2023-02-05T03:47:20.101Z,-2.93
2023-02-05T03:52:35.809Z,-3.15
2023-02-05T03:57:45.366Z,-3.39
2023-02-05T04:02:53.616Z,-3.19
2023-02-05T04:08:03.167Z,-3.51
2023-02-05T04:13:14.029Z,-3.70
2023-02-05T04:18:23.625Z,-3.55
2023-02-05T04:23:29.087Z,-3.62
2023-02-05T04:28:34.630Z,-3.72
2023-02-05T04:33:44.806Z,-3.71
2023-02-05T04:38:52.143Z,-3.61
2023-02-05T04:43:59.132Z,-3.54
2023-02-05T04:49:06.864Z,-3.60
2023-02-05T04:54:11.746Z,-3.52
2023-02-05T04:59:17.025Z,-3.80
2023-02-05T05:04:24.974Z,-3.53
2023-02-05T05:09:30.385Z,-4.11
2023-02-05T05:14:35.261Z,-4.12
2023-02-05T05:19:43.101Z,-3.73
2023-02-05T05:24:48.096Z,-3.79
2023-02-05T05:29:54.646Z,-4.09
2023-02-05T05:35:02.297Z,-4.21
2023-02-05T05:40:20.699Z,-3.90
2023-02-05T05:45:25.652Z,-3.77
2023-02-05T05:50:33.293Z,-3.60
2023-02-05T05:55:39.633Z,-3.97
2023-02-05T06:00:45.619Z,-3.46
2023-02-05T06:05:53.172Z,-3.87
2023-02-05T06:10:58.501Z,-4.22
2023-02-05T06:16:03.540Z,-4.28
2023-02-05T06:21:11.367Z,-4.66
2023-02-05T06:26:16.541Z,-4.72
2023-02-05T06:31:21.970Z,-5.02
2023-02-05T06:36:29.699Z,-5.16
2023-02-05T06:41:34.672Z,-4.84
2023-02-05T06:46:39.893Z,-4.88
2023-02-05T06:51:47.495Z,-4.67
2023-02-05T06:56:52.977Z,-4.43
2023-02-05T07:01:57.912Z,-4.33
2023-02-05T07:07:06.146Z,-4.08
2023-02-05T07:12:11.634Z,-4.05
2023-02-05T07:17:16.723Z,-4.28
2023-02-05T07:22:24.178Z,-4.15
2023-02-05T07:27:29.552Z,-4.42
2023-02-05T07:32:34.409Z,-4.38
2023-02-05T07:37:43.551Z,-4.33
2023-02-05T07:42:48.461Z,-3.77
2023-02-05T07:47:56.197Z,-3.52
2023-02-05T07:53:03.756Z,-3.13
2023-02-05T07:58:08.894Z,-2.64
2023-02-05T08:03:14.087Z,-2.20
2023-02-05T08:08:22.268Z,-2.60
2023-02-05T08:13:27.163Z,-2.94
2023-02-05T08:18:32.014Z,-2.61
2023-02-05T08:23:39.706Z,-2.32
2023-02-05T08:28:46.133Z,-2.46
2023-02-05T08:33:53.219Z,-2.30
2023-02-05T08:39:00.729Z,-2.19
2023-02-05T08:44:05.597Z,-1.81
2023-02-05T08:49:10.709Z,-1.61
2023-02-05T08:54:18.579Z,-1.77
2023-02-05T08:59:24.136Z,-1.62
2023-02-05T09:04:29.442Z,-1.75
2023-02-05T09:09:38.553Z,-1.59
2023-02-05T09:14:44.909Z,-1.36
2023-02-05T09:19:49.983Z,-1.36
2023-02-05T09:24:57.695Z,-1.69
2023-02-05T09:30:02.904Z,-1.47
2023-02-05T09:35:08.172Z,-1.10
2023-02-05T09:40:23.408Z,-0.71
2023-02-05T09:45:39.345Z,-0.75
2023-02-05T09:50:45.563Z,-0.98
2023-02-05T09:55:53.913Z,-0.58
2023-02-05T10:01:04.547Z,-0.50
2023-02-05T10:06:18.663Z,-0.36
2023-02-05T10:11:34.690Z,-0.52
2023-02-05T10:16:52.734Z,-0.73
2023-02-05T10:22:17.410Z,-0.66
2023-02-05T10:27:27.217Z,-0.04
2023-02-05T10:32:43.534Z,0.04
2023-02-05T10:37:57.647Z,-0.25
2023-02-05T10:43:14.281Z,0.17
2023-02-05T10:48:40.003Z,0.40
2023-02-05T10:53:45.143Z,-0.12
2023-02-05T10:58:56.984Z,0.13
2023-02-05T11:04:04.133Z,0.58
2023-02-05T11:09:31.674Z,-0.06
2023-02-05T11:14:42.393Z,0.06
2023-02-05T11:19:55.948Z,0.11
2023-02-05T11:25:10.619Z,0.57
2023-02-05T11:35:58.714Z,0.52
2023-02-05T11:41:07.124Z,0.46
2023-02-05T11:46:20.038Z,0.32
2023-02-05T11:51:41.574Z,0.24
2023-02-05T11:56:46.499Z,0.73
2023-02-05T12:01:54.533Z,0.38
2023-02-05T12:07:05.631Z,0.76
2023-02-05T12:12:21.623Z,0.79
2023-02-05T12:17:39.855Z,0.88
2023-02-05T12:23:14.813Z,0.56
2023-02-05T12:28:33.480Z,0.52
2023-02-05T12:34:06.359Z,1.06
2023-02-05T12:39:25.642Z,0.55
2023-02-05T12:44:41.454Z,0.81
2023-02-05T12:50:36.347Z,0.96
2023-02-05T12:55:54.011Z,0.67
2023-02-05T13:01:07.219Z,1.02
2023-02-05T13:06:21.683Z,0.68
2023-02-05T13:11:31.744Z,0.65
2023-02-05T13:16:43.977Z,0.70
2023-02-05T13:22:06.214Z,0.65
2023-02-05T13:27:34.209Z,0.96
2023-02-05T13:32:40.702Z,1.13
2023-02-05T13:38:10.188Z,0.87
2023-02-05T13:43:36.799Z,0.79
2023-02-05T13:49:19.001Z,1.02
2023-02-05T13:54:56.098Z,1.16
2023-02-05T14:00:03.246Z,1.63
2023-02-05T14:05:17.803Z,1.60
2023-02-05T14:10:32.446Z,1.33
2023-02-05T14:15:42.405Z,1.85
2023-02-05T14:20:47.848Z,1.64
2023-02-05T14:26:13.849Z,1.35
2023-02-05T14:32:00.697Z,1.45
2023-02-05T14:37:06.379Z,1.59
2023-02-05T14:42:23.246Z,1.62
2023-02-05T14:47:31.509Z,1.44
2023-02-05T14:52:40.687Z,1.30
2023-02-05T14:57:51.194Z,1.33
2023-02-05T15:03:26.562Z,1.43
2023-02-05T15:08:44.300Z,1.27
2023-02-05T15:14:33.326Z,1.11
2023-02-05T15:19:44.757Z,1.07
2023-02-05T15:24:53.687Z,0.76
2023-02-05T15:29:58.877Z,0.68
2023-02-05T15:35:13.302Z,0.62
2023-02-05T15:40:26.364Z,0.46
2023-02-05T15:45:33.850Z,0.39
2023-02-05T15:50:48.368Z,0.28
2023-02-05T15:55:54.066Z,0.19
2023-02-05T16:01:00.012Z,0.25
2023-02-05T16:06:08.729Z,0.23
2023-02-05T16:11:13.673Z,0.18
2023-02-05T16:16:24.560Z,-0.02
2023-02-05T16:21:36.349Z,-0.03
2023-02-05T16:26:46.237Z,-0.05
2023-02-05T16:31:51.609Z,-0.13
2023-02-05T16:37:04.998Z,-0.12
2023-02-05T16:42:11.650Z,-0.15
2023-02-05T16:47:20.464Z,-0.14
2023-02-05T16:52:36.199Z,0.01
2023-02-05T16:57:42.411Z,-0.09
2023-02-05T17:02:50.277Z,-0.15
2023-02-05T17:08:01.989Z,-0.31
2023-02-05T17:13:08.827Z,-0.51
2023-02-05T17:18:26.406Z,-0.61
2023-02-05T17:23:34.384Z,-0.75
2023-02-05T17:28:46.867Z,-0.70
2023-02-05T17:33:54.318Z,-0.80
2023-02-05T17:39:02.032Z,-0.91
2023-02-05T17:44:08.689Z,-0.70
2023-02-05T17:49:14.126Z,-1.11
2023-02-05T17:54:23.063Z,-1.02
2023-02-05T17:59:29.129Z,-1.18
2023-02-05T18:04:34.827Z,-1.26
2023-02-05T18:09:42.431Z,-1.35
2023-02-05T18:14:47.359Z,-1.34
2023-02-05T18:19:52.667Z,-1.11
2023-02-05T18:25:00.362Z,-0.69
2023-02-05T18:30:05.423Z,-0.80
2023-02-05T18:35:14.710Z,-0.90
2023-02-05T18:40:23.316Z,-1.01
2023-02-05T18:45:31.466Z,-1.23
2023-02-05T18:50:37.015Z,-1.26
2023-02-05T18:55:44.881Z,-1.24
2023-02-05T19:00:50.091Z,-1.31
2023-02-05T19:05:55.103Z,-1.69
2023-02-05T19:11:03.189Z,-1.84
2023-02-05T19:16:14.008Z,-1.96
2023-02-05T19:21:24.308Z,-1.87
2023-02-05T19:26:32.813Z,-1.88
2023-02-05T19:31:40.214Z,-1.89
2023-02-05T19:36:48.445Z,-2.17
2023-02-05T19:41:56.804Z,-2.22
2023-02-05T19:47:02.462Z,-2.24
2023-02-05T19:52:09.786Z,-2.35
2023-02-05T19:57:20.504Z,-2.61
2023-02-05T20:02:27.685Z,-2.54
2023-02-05T20:07:34.099Z,-2.42
2023-02-05T20:12:44.795Z,-2.63
2023-02-05T20:17:51.329Z,-2.43
2023-02-05T20:22:57.302Z,-2.45
2023-02-05T20:28:05.490Z,-2.46
2023-02-05T20:33:10.928Z,-2.40
2023-02-05T20:38:16.258Z,-2.74
2023-02-05T20:43:24.288Z,-2.48
2023-02-05T20:48:32.672Z,-2.92
2023-02-05T20:53:38.927Z,-2.71
2023-02-05T20:58:49.931Z,-2.62
2023-02-05T21:03:57.953Z,-2.53
2023-02-05T21:09:03.094Z,-2.63
2023-02-05T21:14:11.711Z,-2.81
2023-02-05T21:19:18.548Z,-2.79
2023-02-05T21:24:23.771Z,-2.66
2023-02-05T21:29:33.894Z,-2.77
2023-02-05T21:34:38.820Z,-2.72
2023-02-05T21:39:44.386Z,-2.51
2023-02-05T21:44:53.792Z,-2.55
2023-02-05T21:49:58.662Z,-2.42
2023-02-05T21:55:03.765Z,-2.81
2023-02-05T22:00:12.729Z,-3.14
2023-02-05T22:05:18.151Z,-3.19
2023-02-05T22:10:23.266Z,-3.29
2023-02-05T22:15:31.278Z,-3.64
2023-02-05T22:20:36.704Z,-3.62
2023-02-05T22:25:48.438Z,-3.82
2023-02-05T22:31:02.132Z,-3.63
2023-02-05T22:36:08.635Z,-3.60
2023-02-05T22:41:16.047Z,-3.53
2023-02-05T22:46:25.339Z,-3.63
2023-02-05T22:51:31.953Z,-3.80
2023-02-05T22:56:39.799Z,-4.23
2023-02-05T23:01:47.478Z,-4.02
2023-02-05T23:06:52.529Z,-3.53
2023-02-05T23:11:58.491Z,-3.43
2023-02-05T23:17:05.980Z,-3.78
2023-02-05T23:22:11.387Z,-3.90
2023-02-05T23:27:16.520Z,-4.01
2023-02-05T23:32:24.202Z,-3.94
2023-02-05T23:37:29.015Z,-4.07
2023-02-05T23:42:33.884Z,-3.55
2023-02-05T23:47:41.521Z,-3.51
2023-02-05T23:52:46.382Z,-3.81
2023-02-05T23:57:52.400Z,-3.90
